Time,TemperatureF,DewpointF,PressureIn,WindDirection,WindDirectionDegrees,WindSpeedMPH,WindSpeedGustMPH,Humidity,HourlyPrecipIn,Conditions,Clouds,dailyrainin,SolarRadiationWatts/m^2,SoftwareType,DateUTC
2013-03-07 02:00:00,35.0,29.0,-100.00,ENE,77,1.0,-999.0,78,-99.99,,,-99.99,0.000000,,2013-03-07 08:00:00,
2013-03-07 02:54:00,35.0,29.0,-100.00,ENE,77,1.0,-999.0,78,-99.99,,,-99.99,0.000000,,2013-03-07 08:54:00,
2013-03-07 03:00:00,36.0,29.0,-100.00,NE,37,1.0,-999.0,78,-99.99,,,-99.99,0.000000,,2013-03-07 09:00:00,
2013-03-07 03:53:00,36.0,29.0,-100.00,NE,37,1.0,-999.0,78,-99.99,,,-99.99,0.000000,,2013-03-07 09:53:00,
2013-03-07 04:00:00,35.0,30.0,-100.00,NE,47,1.0,-999.0,83,-99.99,,,-99.99,0.000000,,2013-03-07 10:00:00,
2013-03-07 04:53:00,35.0,30.0,-100.00,NE,47,1.0,-999.0,83,-99.99,,,-99.99,0.000000,,2013-03-07 10:53:00,
2013-03-07 05:54:00,35.0,31.0,-100.00,NNE,32,1.0,-999.0,86,-99.99,,,-99.99,0.000000,,2013-03-07 11:54:00,
2013-03-07 06:00:00,35.0,29.0,-100.00,NNE,17,2.0,-999.0,78,-99.99,,,-99.99,0.000000,,2013-03-07 12:00:00,
2013-03-07 06:53:00,35.0,29.0,-100.00,NNE,17,2.0,-999.0,78,-99.99,,,-99.99,0.000000,,2013-03-07 12:53:00,
2013-03-07 07:00:00,36.0,29.0,-100.00,NE,37,3.0,-999.0,77,-99.99,,,-99.99,12.850000,,2013-03-07 13:00:00,
2013-03-07 07:53:00,36.0,29.0,-100.00,NE,37,3.0,-999.0,77,-99.99,,,-99.99,12.850000,,2013-03-07 13:53:00,
2013-03-07 08:00:00,38.0,29.0,-100.00,NE,43,3.0,-999.0,70,-99.99,,,-99.99,100.099998,,2013-03-07 14:00:00,
2013-03-07 08:54:00,38.0,29.0,-100.00,NE,43,3.0,-999.0,70,-99.99,,,-99.99,100.099998,,2013-03-07 14:54:00,
2013-03-07 09:00:00,42.0,28.0,-100.00,ENE,64,4.0,-999.0,59,-99.99,,,-99.99,334.600006,,2013-03-07 15:00:00,
2013-03-07 09:53:00,42.0,28.0,-100.00,ENE,64,4.0,-999.0,59,-99.99,,,-99.99,334.600006,,2013-03-07 15:53:00,
2013-03-07 10:00:00,46.0,30.0,-100.00,ENE,68,3.0,-999.0,55,-99.99,,,-99.99,574.200012,,2013-03-07 16:00:00,
2013-03-07 10:53:00,46.0,30.0,-100.00,ENE,68,3.0,-999.0,55,-99.99,,,-99.99,574.200012,,2013-03-07 16:53:00,
2013-03-07 11:00:00,48.0,28.0,-100.00,ENE,65,3.0,-999.0,46,-99.99,,,-99.99,703.000000,,2013-03-07 17:00:00,
2013-03-07 11:54:00,48.0,28.0,-100.00,ENE,65,3.0,-999.0,46,-99.99,,,-99.99,703.000000,,2013-03-07 17:54:00,
2013-03-07 12:00:00,49.0,30.0,-100.00,NNE,16,4.0,-999.0,48,-99.99,,,-99.99,787.000000,,2013-03-07 18:00:00,
2013-03-07 12:53:00,49.0,30.0,-100.00,NNE,16,4.0,-999.0,48,-99.99,,,-99.99,787.000000,,2013-03-07 18:53:00,
2013-03-07 13:53:00,51.0,29.0,-100.00,North,349,4.0,-999.0,43,-99.99,,,-99.99,809.000000,,2013-03-07 19:53:00,
2013-03-07 14:00:00,52.0,29.0,-100.00,North,349,5.0,-999.0,40,-99.99,,,-99.99,768.000000,,2013-03-07 20:00:00,
2013-03-07 14:54:00,52.0,29.0,-100.00,North,349,5.0,-999.0,40,-99.99,,,-99.99,768.000000,,2013-03-07 20:54:00,
2013-03-07 15:00:00,54.0,31.0,-100.00,NNE,24,4.0,-999.0,41,-99.99,,,-99.99,659.700012,,2013-03-07 21:00:00,
2013-03-07 15:53:00,54.0,31.0,-100.00,NNE,24,4.0,-999.0,41,-99.99,,,-99.99,659.700012,,2013-03-07 21:53:00,
2013-03-07 16:00:00,54.0,30.0,-100.00,NNE,14,4.0,-999.0,39,-99.99,,,-99.99,496.100006,,2013-03-07 22:00:00,
2013-03-07 16:54:00,54.0,30.0,-100.00,NNE,14,4.0,-999.0,39,-99.99,,,-99.99,496.100006,,2013-03-07 22:54:00,
2013-03-07 17:00:00,54.0,28.0,-100.00,NNE,28,4.0,-999.0,37,-99.99,,,-99.99,295.799988,,2013-03-07 23:00:00,
2013-03-07 17:54:00,54.0,28.0,-100.00,NNE,28,4.0,-999.0,37,-99.99,,,-99.99,295.799988,,2013-03-07 23:54:00,
2013-03-07 18:00:00,53.0,31.0,-100.00,NNE,23,3.0,-999.0,43,-99.99,,,-99.99,87.400002,,2013-03-08 00:00:00,
2013-03-07 18:54:00,53.0,31.0,-100.00,NNE,23,3.0,-999.0,43,-99.99,,,-99.99,87.400002,,2013-03-08 00:54:00,
2013-03-07 19:00:00,47.0,35.0,-100.00,North,360,1.0,-999.0,63,-99.99,,,-99.99,0.920000,,2013-03-08 01:00:00,
2013-03-07 19:52:00,47.0,35.0,-100.00,North,360,1.0,-999.0,63,-99.99,,,-99.99,0.920000,,2013-03-08 01:52:00,
2013-03-07 20:00:00,45.0,37.0,-100.00,North,1,1.0,-999.0,72,-99.99,,,-99.99,0.000000,,2013-03-08 02:00:00,
2013-03-07 20:53:00,45.0,37.0,-100.00,North,1,1.0,-999.0,72,-99.99,,,-99.99,0.000000,,2013-03-08 02:53:00,
2013-03-07 21:00:00,42.0,36.0,-100.00,NNW,344,1.0,-999.0,77,-99.99,,,-99.99,0.000000,,2013-03-08 03:00:00,
2013-03-07 21:53:00,42.0,36.0,-100.00,NNW,344,1.0,-999.0,77,-99.99,,,-99.99,0.000000,,2013-03-08 03:53:00,
2013-03-07 22:00:00,41.0,35.0,-100.00,North,360,0.0,-999.0,78,-99.99,,,-99.99,0.000000,,2013-03-08 04:00:00,
2013-03-07 22:52:00,41.0,35.0,-100.00,North,360,0.0,-999.0,78,-99.99,,,-99.99,0.000000,,2013-03-08 04:52:00,
2013-03-07 23:00:00,40.0,36.0,-100.00,NNE,20,1.0,-999.0,84,-99.99,,,-99.99,0.000000,,2013-03-08 05:00:00,
2013-03-07 23:52:00,40.0,36.0,-100.00,NNE,20,1.0,-999.0,84,-99.99,,,-99.99,0.000000,,2013-03-08 05:52:00,